Tracy Creek, New York
Current Conditions -  °F | °C
As of 1:53 AM on Saturday 27 Dec 2014 (Local Time) from KBGM Reporting Station
Clear Clear  
Wind Chill: 30°   Ceiling: Unl
Heat Index: 35°   Visibility: 10mi
Dew Point: 27°   Wind: 6mph
Humidity: 72%   Direction: 230°SW
Pressure: 30.15"   Gusts: NA
Location:  42.0463°N, 76.0314°W
Report Text: KBGM 270653Z AUTO 23005KT 10SM CLR 02/M03 A3015 RMK AO2 SLP222 T00171028
Loading
Personal Weather Stations






























Interactive Weather Map New forecast layout! Learn more

10-Day Weather Forecast

Advertisements
Track Severe Weather on mobile